Terminal Aerodrome Forecast
Issued by NWS

Home | Current Version | Previous Version | Text Only | Print | Product List | Glossary On
Versions: 1 2 3 4 5 6 7 8 9 10 11 12 13 14 15 16 17 18 19 20 21 22 23 24 25 26 27 28 29 30
000
FTUS44 KHGX 270718 AAB
TAFCXO
TAF AMD
KCXO 270718Z 2707/2806 15004KT P6SM SCT029
     FM270900 17005KT P6SM MIFG OVC012
     FM271100 17006KT P6SM OVC007
     FM271500 18011KT P6SM BKN014
     FM271600 19008KT P6SM BKN025
     FM271800 19009KT P6SM BKN035
     FM272100 20007KT P6SM VCSH BKN035
     FM280100 14003KT P6SM SCT025 BKN250=

USA.gov is the U.S. government's official web portal to all federal, state and local government web resources and services.